Indianapolis, Indiana
Current Conditions -  °F | °C
As of 11:54 PM on Saturday 25 Oct 2014 (Local Time) from KIND Reporting Station
Clear Clear  
Wind Chill: 58°   Ceiling: Unl
Heat Index: 58°   Visibility: 10mi
Dew Point: 40°   Wind: 9mph
Humidity: 51%   Direction: 300°WNW
Pressure: 29.97"   Gusts: NA
Location:  39.77°N, 86.15°W
Report Text: KIND 260354Z 30008KT 10SM CLR 14/04 A2997 RMK AO2 SLP145 T01440044
Loading
Personal Weather Stations






























Interactive Weather Map
Tropical Storm Tracking
New forecast layout! Learn more

10-Day Weather Forecast

Advertisements
Track Severe Weather on mobile